Time;durP1;ratioP1;P1;durP2;ratioP2;P2;SDS_P1;SDS_P2;PMS_P1;PMS_P2;Temp;Humidity;BMP_temperature;BMP_pressure;BME280_temperature;BME280_humidity;BME280_pressure;Samples;Min_cycle;Max_cycle;Signal;HPM_P1;HPM_P2
2024/01/18 00:02:16;;;;;;;7.57;6.87;;;;;;;;;;5050810;28;20308;-63
2024/01/18 00:04:43;;;;;;;7.57;6.77;;;;;;;;;;5051706;28;20733;-63
2024/01/18 00:07:10;;;;;;;7.90;7.10;;;;;;;;;;5051377;28;20206;-63
2024/01/18 00:09:38;;;;;;;7.50;6.80;;;;;;;;;;5032393;28;20659;-65
2024/01/18 00:12:06;;;;;;;7.70;6.90;;;;;;;;;;5044774;28;20218;-65
2024/01/18 00:14:33;;;;;;;7.83;6.97;;;;;;;;;;5050555;28;20271;-66
2024/01/18 00:17:01;;;;;;;8.43;7.53;;;;;;;;;;5048700;28;20206;-66
2024/01/18 00:19:28;;;;;;;8.10;7.30;;;;;;;;;;5056005;28;20194;-65
2024/01/18 00:21:56;;;;;;;7.67;6.87;;;;;;;;;;5047870;28;20384;-65
2024/01/18 00:24:23;;;;;;;8.07;7.27;;;;;;;;;;5051835;28;20207;-66
2024/01/18 00:26:51;;;;;;;8.20;7.40;;;;;;;;;;5049581;28;20198;-64
2024/01/18 00:29:18;;;;;;;7.83;7.10;;;;;;;;;;5049230;28;20664;-65
2024/01/18 00:31:45;;;;;;;8.10;7.30;;;;;;;;;;5052557;28;20510;-65
2024/01/18 00:34:12;;;;;;;7.33;6.63;;;;;;;;;;5035100;28;20216;-65
2024/01/18 00:36:40;;;;;;;9.13;7.97;;;;;;;;;;5054830;28;20206;-65
2024/01/18 00:39:11;;;;;;;8.43;7.53;;;;;;;;;;5046688;28;20222;-66
2024/01/18 00:41:38;;;;;;;8.37;7.53;;;;;;;;;;5049076;28;20630;-64
2024/01/18 00:44:06;;;;;;;8.27;7.37;;;;;;;;;;5048819;28;20582;-65
2024/01/18 00:46:33;;;;;;;7.97;7.17;;;;;;;;;;5034430;28;20218;-64
2024/01/18 00:49:01;;;;;;;8.10;7.30;;;;;;;;;;5027418;28;20217;-64
2024/01/18 00:51:28;;;;;;;7.77;6.97;;;;;;;;;;5050675;28;20213;-64
2024/01/18 00:53:56;;;;;;;8.13;7.30;;;;;;;;;;5027831;28;20205;-67
2024/01/18 00:56:23;;;;;;;8.77;7.87;;;;;;;;;;5045280;28;20222;-64
2024/01/18 00:58:50;;;;;;;8.10;6.97;;;;;;;;;;5052447;28;20206;-64
2024/01/18 01:01:17;;;;;;;7.50;6.80;;;;;;;;;;5048981;28;20210;-64
2024/01/18 01:03:45;;;;;;;7.73;6.93;;;;;;;;;;5048828;28;20201;-64
2024/01/18 01:06:13;;;;;;;7.47;6.77;;;;;;;;;;5047279;28;20297;-65
2024/01/18 01:08:41;;;;;;;7.13;6.37;;;;;;;;;;5050475;28;20202;-64
2024/01/18 01:11:10;;;;;;;6.10;5.50;;;;;;;;;;5049409;28;20336;-64
2024/01/18 01:13:38;;;;;;;7.07;6.23;;;;;;;;;;5045673;28;20202;-65
2024/01/18 01:16:05;;;;;;;6.77;6.13;;;;;;;;;;5050391;28;20605;-65
2024/01/18 01:18:33;;;;;;;6.47;5.87;;;;;;;;;;5035727;28;20482;-65
2024/01/18 01:21:00;;;;;;;7.10;6.40;;;;;;;;;;5049874;28;22044;-64
2024/01/18 01:23:27;;;;;;;7.00;6.30;;;;;;;;;;5032033;28;20250;-64
2024/01/18 01:25:55;;;;;;;7.10;6.50;;;;;;;;;;5048932;28;20205;-64
2024/01/18 01:28:22;;;;;;;6.87;6.20;;;;;;;;;;5032228;28;20645;-65
2024/01/18 01:30:50;;;;;;;6.73;6.13;;;;;;;;;;5049646;28;20225;-65
2024/01/18 01:33:17;;;;;;;7.77;6.67;;;;;;;;;;5051087;28;20221;-64
2024/01/18 01:35:45;;;;;;;7.63;6.70;;;;;;;;;;5036504;28;20305;-64
2024/01/18 01:38:12;;;;;;;7.50;6.47;;;;;;;;;;5050632;28;20213;-65
2024/01/18 01:40:40;;;;;;;7.27;6.57;;;;;;;;;;5049667;28;20245;-64
2024/01/18 01:43:09;;;;;;;7.77;6.97;;;;;;;;;;5033341;28;20699;-65
2024/01/18 01:45:36;;;;;;;8.13;7.23;;;;;;;;;;5050888;28;20206;-65
2024/01/18 01:48:07;;;;;;;7.80;6.63;;;;;;;;;;5049332;28;20214;-64
2024/01/18 01:50:36;;;;;;;7.70;6.63;;;;;;;;;;5050600;28;20222;-64
2024/01/18 01:53:03;;;;;;;7.20;6.60;;;;;;;;;;5050733;28;20226;-64
2024/01/18 01:55:31;;;;;;;7.10;6.40;;;;;;;;;;5049650;28;20280;-66
2024/01/18 01:58:00;;;;;;;7.23;6.53;;;;;;;;;;5030166;28;20205;-63
2024/01/18 02:00:27;;;;;;;8.17;7.37;;;;;;;;;;5046671;28;20635;-63
2024/01/18 02:02:55;;;;;;;7.43;6.73;;;;;;;;;;5044896;28;20245;-65
2024/01/18 02:05:22;;;;;;;8.13;6.87;;;;;;;;;;5049311;28;20226;-65
2024/01/18 02:07:52;;;;;;;7.63;6.93;;;;;;;;;;5031993;28;20344;-66
2024/01/18 02:10:20;;;;;;;8.80;7.90;;;;;;;;;;5050753;28;20252;-66
2024/01/18 02:12:49;;;;;;;8.50;7.63;;;;;;;;;;5043348;28;20230;-66
2024/01/18 02:15:17;;;;;;;8.30;7.50;;;;;;;;;;5029490;28;20272;-64
2024/01/18 02:17:45;;;;;;;8.30;7.50;;;;;;;;;;5031829;28;20202;-65
2024/01/18 02:20:12;;;;;;;8.77;7.63;;;;;;;;;;5053126;28;20206;-65
2024/01/18 02:22:44;;;;;;;8.30;7.50;;;;;;;;;;5045219;28;20222;-65
2024/01/18 02:25:13;;;;;;;8.97;7.67;;;;;;;;;;5046874;28;20211;-64
2024/01/18 02:27:40;;;;;;;8.83;7.93;;;;;;;;;;5049120;28;20668;-64
2024/01/18 02:30:08;;;;;;;8.03;7.10;;;;;;;;;;5049379;28;20270;-65
2024/01/18 02:32:35;;;;;;;8.33;7.47;;;;;;;;;;5042216;28;20227;-65
2024/01/18 02:35:02;;;;;;;7.80;7.03;;;;;;;;;;5048305;28;20313;-65
2024/01/18 02:37:30;;;;;;;8.23;7.33;;;;;;;;;;5035982;28;20198;-65
2024/01/18 02:39:59;;;;;;;8.77;7.30;;;;;;;;;;5029577;28;20213;-65
2024/01/18 02:42:26;;;;;;;8.13;7.30;;;;;;;;;;5045401;28;20313;-65
2024/01/18 02:44:55;;;;;;;8.27;7.47;;;;;;;;;;5044971;28;20207;-65
2024/01/18 02:47:23;;;;;;;8.87;7.60;;;;;;;;;;5051114;28;20245;-65
2024/01/18 02:49:51;;;;;;;7.30;6.60;;;;;;;;;;5051173;28;20659;-64
2024/01/18 02:52:19;;;;;;;8.00;7.20;;;;;;;;;;5050173;28;20228;-66
2024/01/18 02:54:46;;;;;;;9.10;7.10;;;;;;;;;;5043148;28;20203;-65
2024/01/18 02:57:13;;;;;;;8.03;6.80;;;;;;;;;;5048623;28;20198;-65
2024/01/18 02:59:41;;;;;;;6.47;5.77;;;;;;;;;;5048222;28;20230;-65
2024/01/18 03:02:08;;;;;;;6.30;5.70;;;;;;;;;;5033313;28;20784;-65
2024/01/18 03:04:35;;;;;;;7.77;6.97;;;;;;;;;;5031274;28;20202;-65
2024/01/18 03:07:03;;;;;;;6.30;5.70;;;;;;;;;;5048940;28;20629;-65
2024/01/18 03:09:30;;;;;;;7.13;5.70;;;;;;;;;;5042302;28;20202;-64
2024/01/18 03:11:58;;;;;;;6.30;5.40;;;;;;;;;;5050356;28;20229;-65
2024/01/18 03:14:25;;;;;;;5.90;5.40;;;;;;;;;;5050069;28;20206;-65
2024/01/18 03:16:52;;;;;;;6.77;5.53;;;;;;;;;;5029653;28;20770;-64
2024/01/18 03:19:20;;;;;;;5.90;5.30;;;;;;;;;;5045870;28;20198;-67
2024/01/18 03:21:47;;;;;;;6.13;5.53;;;;;;;;;;5014807;28;20581;-68
2024/01/18 03:24:14;;;;;;;5.30;4.80;;;;;;;;;;5046570;28;20209;-66
2024/01/18 03:26:42;;;;;;;4.93;4.50;;;;;;;;;;5051714;28;20293;-66
2024/01/18 03:29:09;;;;;;;4.87;4.47;;;;;;;;;;5032969;28;20260;-65
2024/01/18 03:31:37;;;;;;;4.50;4.10;;;;;;;;;;5048417;28;20231;-64
2024/01/18 03:34:04;;;;;;;4.57;4.17;;;;;;;;;;5031926;28;20292;-64
2024/01/18 03:36:32;;;;;;;4.10;3.80;;;;;;;;;;5047552;28;20287;-66
2024/01/18 03:38:59;;;;;;;3.83;3.53;;;;;;;;;;5042393;28;20292;-65
2024/01/18 03:41:26;;;;;;;3.87;3.50;;;;;;;;;;5051309;28;20237;-65
2024/01/18 03:43:54;;;;;;;3.83;3.53;;;;;;;;;;5044876;28;20214;-66
2024/01/18 03:46:21;;;;;;;3.50;3.27;;;;;;;;;;5047256;28;20731;-66
2024/01/18 03:48:48;;;;;;;3.17;2.97;;;;;;;;;;5047491;28;20206;-66
2024/01/18 03:51:16;;;;;;;3.40;3.10;;;;;;;;;;5030397;28;20252;-66
2024/01/18 03:53:43;;;;;;;3.40;3.10;;;;;;;;;;5028260;28;20202;-65
2024/01/18 03:56:12;;;;;;;4.00;2.80;;;;;;;;;;5045391;28;20225;-65
2024/01/18 03:58:43;;;;;;;3.87;3.57;;;;;;;;;;5032262;28;20208;-65
2024/01/18 04:01:10;;;;;;;3.80;3.50;;;;;;;;;;5048747;28;20201;-65
2024/01/18 04:03:38;;;;;;;3.40;3.17;;;;;;;;;;5043160;28;20198;-67
2024/01/18 04:06:05;;;;;;;3.27;2.93;;;;;;;;;;5052991;28;20206;-64
2024/01/18 04:08:33;;;;;;;3.47;3.17;;;;;;;;;;5048078;28;20627;-65
2024/01/18 04:11:02;;;;;;;3.90;3.50;;;;;;;;;;5053634;28;20300;-65
2024/01/18 04:13:29;;;;;;;3.30;3.10;;;;;;;;;;5046098;28;20226;-65
2024/01/18 04:15:57;;;;;;;3.90;3.50;;;;;;;;;;5047250;28;20711;-65
2024/01/18 04:18:25;;;;;;;4.30;3.50;;;;;;;;;;5049382;28;20706;-64
2024/01/18 04:20:52;;;;;;;4.63;3.37;;;;;;;;;;5045803;28;20206;-66
2024/01/18 04:23:21;;;;;;;3.77;3.47;;;;;;;;;;5027819;28;20222;-66
2024/01/18 04:25:52;;;;;;;4.00;3.70;;;;;;;;;;5033675;28;20675;-65
2024/01/18 04:28:20;;;;;;;5.50;3.83;;;;;;;;;;5047215;28;20649;-65
2024/01/18 04:30:48;;;;;;;3.87;3.57;;;;;;;;;;5048318;28;20658;-66
2024/01/18 04:33:15;;;;;;;4.20;3.90;;;;;;;;;;5049802;28;20253;-65
2024/01/18 04:35:42;;;;;;;4.90;3.17;;;;;;;;;;5029805;28;20275;-65
2024/01/18 04:38:10;;;;;;;3.27;3.07;;;;;;;;;;5048380;28;20203;-64
2024/01/18 04:40:37;;;;;;;3.10;2.80;;;;;;;;;;5041647;28;20201;-64
2024/01/18 04:43:04;;;;;;;2.87;2.67;;;;;;;;;;5050724;28;20295;-65
2024/01/18 04:45:31;;;;;;;4.33;2.60;;;;;;;;;;5050469;28;20202;-65
2024/01/18 04:47:59;;;;;;;5.73;2.80;;;;;;;;;;5046270;28;20214;-65
2024/01/18 04:50:27;;;;;;;2.80;2.50;;;;;;;;;;5049605;28;20281;-66
2024/01/18 04:52:54;;;;;;;2.10;2.00;;;;;;;;;;5046989;28;20222;-65
2024/01/18 04:55:25;;;;;;;2.00;1.90;;;;;;;;;;5049041;28;20259;-66
2024/01/18 04:57:52;;;;;;;1.90;1.80;;;;;;;;;;5050445;28;20302;-66
2024/01/18 05:00:20;;;;;;;2.37;1.90;;;;;;;;;;5047052;28;20198;-64
2024/01/18 05:02:47;;;;;;;2.83;2.13;;;;;;;;;;5028808;28;20230;-64
2024/01/18 05:05:15;;;;;;;2.40;1.90;;;;;;;;;;5046871;28;20198;-65
2024/01/18 05:07:42;;;;;;;2.40;2.23;;;;;;;;;;5026958;28;20210;-64
2024/01/18 05:10:11;;;;;;;4.47;4.07;;;;;;;;;;5043685;28;20213;-65
2024/01/18 05:12:38;;;;;;;2.40;2.20;;;;;;;;;;5027233;28;20233;-65
2024/01/18 05:15:07;;;;;;;2.80;2.23;;;;;;;;;;5043305;28;20284;-67
2024/01/18 05:17:35;;;;;;;2.17;1.93;;;;;;;;;;5026373;28;20226;-67
2024/01/18 05:20:04;;;;;;;2.00;1.90;;;;;;;;;;5030065;28;20256;-67
2024/01/18 05:22:32;;;;;;;2.37;1.83;;;;;;;;;;5039696;28;20237;-65
2024/01/18 05:25:00;;;;;;;4.67;2.50;;;;;;;;;;5034624;28;20207;-66
2024/01/18 05:27:28;;;;;;;2.10;2.00;;;;;;;;;;5017001;28;20207;-65
2024/01/18 05:29:55;;;;;;;2.67;2.53;;;;;;;;;;5040012;28;20238;-65
2024/01/18 05:32:23;;;;;;;2.23;2.03;;;;;;;;;;5043301;28;20230;-65
2024/01/18 05:34:51;;;;;;;2.70;2.10;;;;;;;;;;5030476;28;20205;-64
2024/01/18 05:37:22;;;;;;;2.10;2.00;;;;;;;;;;5049692;28;20257;-65
2024/01/18 05:39:51;;;;;;;2.53;1.60;;;;;;;;;;5029197;28;20202;-64
2024/01/18 05:42:18;;;;;;;2.27;1.60;;;;;;;;;;5046395;28;20245;-65
2024/01/18 05:44:46;;;;;;;1.80;1.70;;;;;;;;;;5048633;28;20607;-65
2024/01/18 05:47:14;;;;;;;1.77;1.67;;;;;;;;;;5043977;28;20634;-64
2024/01/18 05:49:43;;;;;;;2.07;1.83;;;;;;;;;;5042515;28;20811;-67
2024/01/18 05:52:15;;;;;;;1.90;1.80;;;;;;;;;;5047845;28;20759;-66
2024/01/18 05:54:43;;;;;;;3.27;2.00;;;;;;;;;;5046011;28;20206;-65
2024/01/18 05:57:12;;;;;;;1.80;1.70;;;;;;;;;;5045310;28;20312;-65
2024/01/18 05:59:40;;;;;;;1.83;1.73;;;;;;;;;;5029731;28;20285;-65
2024/01/18 06:02:09;;;;;;;2.10;1.80;;;;;;;;;;5047656;28;20362;-65
2024/01/18 06:04:36;;;;;;;2.03;1.93;;;;;;;;;;5034121;28;20257;-64
2024/01/18 06:07:04;;;;;;;2.47;1.90;;;;;;;;;;5050089;28;20202;-64
2024/01/18 06:09:33;;;;;;;3.27;1.80;;;;;;;;;;5047406;28;20212;-65
2024/01/18 06:12:03;;;;;;;2.10;2.00;;;;;;;;;;5047971;28;20802;-65
2024/01/18 06:14:30;;;;;;;3.47;2.70;;;;;;;;;;5041872;28;20301;-66
2024/01/18 06:16:57;;;;;;;3.83;3.53;;;;;;;;;;5046499;28;20283;-65
2024/01/18 06:19:25;;;;;;;4.97;2.70;;;;;;;;;;5045942;28;20627;-65
2024/01/18 06:21:52;;;;;;;14.60;11.70;;;;;;;;;;5044334;28;20232;-65
2024/01/18 06:24:19;;;;;;;4.77;4.23;;;;;;;;;;5046661;28;20572;-64
2024/01/18 06:26:49;;;;;;;4.23;3.83;;;;;;;;;;5026855;28;20216;-65
2024/01/18 06:29:26;;;;;;;4.17;2.80;;;;;;;;;;5044519;28;20331;-65
2024/01/18 06:31:54;;;;;;;2.00;1.90;;;;;;;;;;5025123;28;20226;-64
2024/01/18 06:34:21;;;;;;;2.23;1.60;;;;;;;;;;5026967;28;20205;-65
2024/01/18 06:36:51;;;;;;;2.07;1.97;;;;;;;;;;5045438;28;20222;-65
2024/01/18 06:39:21;;;;;;;1.67;1.57;;;;;;;;;;5046562;28;20198;-65
2024/01/18 06:41:52;;;;;;;2.13;1.93;;;;;;;;;;5047858;28;20224;-65
2024/01/18 06:44:22;;;;;;;2.63;2.43;;;;;;;;;;5044872;28;20694;-65
2024/01/18 06:46:50;;;;;;;4.43;2.70;;;;;;;;;;5044921;28;20210;-64
2024/01/18 06:49:18;;;;;;;1.90;1.80;;;;;;;;;;5032944;28;20264;-64
2024/01/18 06:51:46;;;;;;;2.03;1.87;;;;;;;;;;5031650;28;20308;-64
2024/01/18 06:54:14;;;;;;;2.57;2.37;;;;;;;;;;5048818;28;20201;-65
2024/01/18 06:56:45;;;;;;;4.63;3.80;;;;;;;;;;5049845;28;20213;-64
2024/01/18 06:59:12;;;;;;;1.70;1.60;;;;;;;;;;5030652;28;20205;-64
2024/01/18 07:01:41;;;;;;;1.50;1.40;;;;;;;;;;5044546;28;20226;-64
2024/01/18 07:04:13;;;;;;;3.23;2.30;;;;;;;;;;5036546;28;20260;-63
2024/01/18 07:06:40;;;;;;;1.90;1.80;;;;;;;;;;5025335;28;20216;-65
2024/01/18 07:09:08;;;;;;;1.73;1.63;;;;;;;;;;5035311;28;20332;-64
2024/01/18 07:11:38;;;;;;;1.87;1.77;;;;;;;;;;5021388;28;20777;-63
2024/01/18 07:14:06;;;;;;;1.50;1.40;;;;;;;;;;5018097;28;20302;-64
2024/01/18 07:16:37;;;;;;;1.70;1.60;;;;;;;;;;5014392;28;20462;-64
2024/01/18 07:22:29;;;;;;;2.60;2.40;;;;;;;;;;5597596;22;20792;-61
2024/01/18 07:24:57;;;;;;;1.60;1.60;;;;;;;;;;5022322;28;20237;-63
2024/01/18 07:27:25;;;;;;;2.80;2.60;;;;;;;;;;5046830;28;20206;-63
2024/01/18 07:29:54;;;;;;;1.63;1.53;;;;;;;;;;5032182;28;20680;-61
2024/01/18 07:32:25;;;;;;;3.53;3.23;;;;;;;;;;5042459;28;20231;-62
2024/01/18 07:35:00;;;;;;;2.30;2.10;;;;;;;;;;5055023;28;20205;-62
2024/01/18 07:37:30;;;;;;;1.90;1.77;;;;;;;;;;5036544;28;20720;-61
2024/01/18 07:40:02;;;;;;;2.10;1.97;;;;;;;;;;5039187;28;20203;-61
2024/01/18 07:42:49;;;;;;;2.00;1.90;;;;;;;;;;5037377;28;20210;-61
2024/01/18 07:45:23;;;;;;;1.80;1.70;;;;;;;;;;5040841;28;20679;-61
2024/01/18 07:47:53;;;;;;;1.20;1.20;;;;;;;;;;5038354;28;20312;-61
2024/01/18 07:50:24;;;;;;;1.20;1.20;;;;;;;;;;5038355;28;20287;-61
2024/01/18 07:53:03;;;;;;;1.00;1.00;;;;;;;;;;5042741;28;20222;-61
2024/01/18 07:55:32;;;;;;;1.30;1.20;;;;;;;;;;5039734;28;20274;-61
2024/01/18 07:58:01;;;;;;;1.03;1.03;;;;;;;;;;5042894;28;20313;-61
2024/01/18 08:00:35;;;;;;;1.63;1.10;;;;;;;;;;5041175;28;20622;-62
2024/01/18 08:03:14;;;;;;;1.77;1.13;;;;;;;;;;5040273;28;20621;-62
2024/01/18 08:05:46;;;;;;;1.00;1.00;;;;;;;;;;5036317;28;20207;-61
2024/01/18 08:08:20;;;;;;;2.30;1.30;;;;;;;;;;5036979;28;20210;-62
2024/01/18 08:10:57;;;;;;;1.10;1.10;;;;;;;;;;5038540;28;20226;-63
2024/01/18 08:13:36;;;;;;;0.90;0.90;;;;;;;;;;5044253;28;20213;-61
2024/01/18 08:16:26;;;;;;;1.90;1.00;;;;;;;;;;5041930;28;20289;-61
2024/01/18 08:18:55;;;;;;;1.00;1.00;;;;;;;;;;5039578;28;20639;-61
2024/01/18 08:21:31;;;;;;;2.23;1.10;;;;;;;;;;5042522;28;20218;-62
2024/01/18 08:24:09;;;;;;;0.87;0.87;;;;;;;;;;5040428;28;20687;-62
2024/01/18 08:26:45;;;;;;;0.97;0.90;;;;;;;;;;5043279;28;20293;-61
2024/01/18 08:29:21;;;;;;;1.97;0.90;;;;;;;;;;5043490;28;20213;-63
2024/01/18 08:31:56;;;;;;;0.60;0.60;;;;;;;;;;5036821;28;20222;-61
2024/01/18 08:34:25;;;;;;;1.17;0.90;;;;;;;;;;5039313;28;20210;-61
2024/01/18 08:36:55;;;;;;;0.90;0.90;;;;;;;;;;5033500;28;20307;-61
2024/01/18 08:39:24;;;;;;;0.77;0.77;;;;;;;;;;5037924;28;20592;-61
2024/01/18 08:41:59;;;;;;;0.80;0.80;;;;;;;;;;5040211;28;20226;-61
2024/01/18 08:44:32;;;;;;;0.90;0.90;;;;;;;;;;5038121;28;20785;-61
2024/01/18 08:47:01;;;;;;;0.90;0.90;;;;;;;;;;5036786;28;20393;-60
2024/01/18 08:49:33;;;;;;;0.90;0.90;;;;;;;;;;5042111;28;20256;-61
2024/01/18 08:52:14;;;;;;;1.17;0.97;;;;;;;;;;5042315;28;20233;-61
2024/01/18 08:54:55;;;;;;;2.40;1.00;;;;;;;;;;5041097;28;20263;-61
2024/01/18 08:57:23;;;;;;;0.97;0.90;;;;;;;;;;5039340;28;20263;-61
2024/01/18 08:59:55;;;;;;;1.20;1.20;;;;;;;;;;5040833;28;20210;-62
2024/01/18 09:02:33;;;;;;;0.80;0.80;;;;;;;;;;5036335;28;20225;-61
2024/01/18 09:05:02;;;;;;;1.00;1.00;;;;;;;;;;5043611;28;20203;-63
2024/01/18 09:07:30;;;;;;;0.80;0.80;;;;;;;;;;5039796;28;20312;-63
2024/01/18 09:10:01;;;;;;;0.80;0.80;;;;;;;;;;5039181;28;20215;-61
2024/01/18 09:12:33;;;;;;;0.80;0.80;;;;;;;;;;5040615;28;20209;-63
2024/01/18 09:15:02;;;;;;;0.97;0.97;;;;;;;;;;5042222;28;20297;-61
2024/01/18 09:17:36;;;;;;;1.07;1.07;;;;;;;;;;5032865;28;20214;-63
2024/01/18 09:20:05;;;;;;;0.80;0.80;;;;;;;;;;5037472;28;20609;-63
2024/01/18 09:22:33;;;;;;;7.40;1.27;;;;;;;;;;5033006;28;20206;-63
2024/01/18 09:25:05;;;;;;;0.80;0.80;;;;;;;;;;5033320;28;20239;-62
2024/01/18 09:27:54;;;;;;;0.83;0.83;;;;;;;;;;5033071;28;21162;-62
2024/01/18 09:30:36;;;;;;;0.80;0.80;;;;;;;;;;5037168;28;20345;-62
2024/01/18 09:33:17;;;;;;;0.90;0.90;;;;;;;;;;5057755;28;20266;-63
2024/01/18 09:36:01;;;;;;;0.90;0.90;;;;;;;;;;5042001;28;20195;-62
2024/01/18 09:38:44;;;;;;;0.80;0.80;;;;;;;;;;5039267;28;20231;-62
2024/01/18 09:44:16;;;;;;;1.80;1.10;;;;;;;;;;5037827;28;20199;-62
2024/01/18 09:47:05;;;;;;;0.83;0.83;;;;;;;;;;5036096;28;20218;-62
2024/01/18 09:49:46;;;;;;;0.80;0.80;;;;;;;;;;5040242;28;20222;-62
2024/01/18 09:52:24;;;;;;;1.70;0.80;;;;;;;;;;5037094;28;20236;-63
2024/01/18 09:54:53;;;;;;;3.10;1.00;;;;;;;;;;5034899;28;20216;-62
2024/01/18 09:57:30;;;;;;;0.70;0.70;;;;;;;;;;5036304;28;20213;-63
2024/01/18 10:00:03;;;;;;;1.10;1.10;;;;;;;;;;5034210;28;20210;-62
2024/01/18 10:02:34;;;;;;;1.67;0.80;;;;;;;;;;5039893;28;20191;-62
2024/01/18 10:05:11;;;;;;;0.80;0.80;;;;;;;;;;5039065;28;20635;-63
2024/01/18 10:07:43;;;;;;;1.20;0.90;;;;;;;;;;5033178;28;20202;-63
2024/01/18 10:10:14;;;;;;;0.70;0.70;;;;;;;;;;5041798;28;20297;-61
2024/01/18 10:12:42;;;;;;;0.80;0.80;;;;;;;;;;5037708;28;20668;-61
2024/01/18 10:15:10;;;;;;;0.83;0.83;;;;;;;;;;5031189;28;20232;-63
2024/01/18 10:17:39;;;;;;;0.73;0.73;;;;;;;;;;5040684;28;20276;-63
2024/01/18 10:20:13;;;;;;;0.70;0.70;;;;;;;;;;5035789;28;20207;-63
2024/01/18 10:22:43;;;;;;;0.70;0.70;;;;;;;;;;5038626;28;20215;-63
2024/01/18 10:25:12;;;;;;;0.70;0.70;;;;;;;;;;5039966;28;20664;-63
2024/01/18 10:27:43;;;;;;;0.83;0.83;;;;;;;;;;5033972;28;20218;-64
2024/01/18 10:30:12;;;;;;;0.70;0.70;;;;;;;;;;5036218;28;20198;-63
2024/01/18 10:32:40;;;;;;;0.70;0.70;;;;;;;;;;5035418;28;20218;-63
2024/01/18 10:35:17;;;;;;;0.70;0.70;;;;;;;;;;5031501;28;20659;-62
2024/01/18 10:37:45;;;;;;;0.70;0.70;;;;;;;;;;5017107;28;20298;-63
2024/01/18 10:40:17;;;;;;;0.90;0.80;;;;;;;;;;5038862;28;20209;-62
2024/01/18 10:42:45;;;;;;;0.70;0.70;;;;;;;;;;5039456;28;20286;-62
2024/01/18 10:45:13;;;;;;;0.70;0.70;;;;;;;;;;5038220;28;20665;-63
2024/01/18 10:47:42;;;;;;;0.70;0.70;;;;;;;;;;5032865;28;20727;-63
2024/01/18 10:50:10;;;;;;;0.80;0.80;;;;;;;;;;5027966;28;20301;-64
2024/01/18 10:52:37;;;;;;;0.60;0.60;;;;;;;;;;5033193;28;20202;-64
2024/01/18 10:55:08;;;;;;;0.80;0.80;;;;;;;;;;5033969;28;20268;-64
2024/01/18 10:57:36;;;;;;;0.70;0.70;;;;;;;;;;5039499;28;20223;-62
2024/01/18 11:00:06;;;;;;;0.70;0.70;;;;;;;;;;5033577;28;20618;-62
2024/01/18 11:02:40;;;;;;;0.70;0.70;;;;;;;;;;5039219;28;20202;-63
2024/01/18 11:05:17;;;;;;;0.70;0.70;;;;;;;;;;5038692;28;20199;-63
2024/01/18 11:07:52;;;;;;;0.80;0.80;;;;;;;;;;5033166;28;20220;-63
2024/01/18 11:10:20;;;;;;;0.90;0.70;;;;;;;;;;5028585;28;20256;-62
2024/01/18 11:12:49;;;;;;;0.80;0.80;;;;;;;;;;5033837;28;20297;-61
2024/01/18 11:15:17;;;;;;;0.80;0.80;;;;;;;;;;5033775;28;20201;-63
2024/01/18 11:17:48;;;;;;;0.70;0.70;;;;;;;;;;5031458;28;20225;-63
2024/01/18 11:20:16;;;;;;;0.70;0.70;;;;;;;;;;5035099;28;20285;-62
2024/01/18 11:22:43;;;;;;;0.77;0.77;;;;;;;;;;5034312;28;20210;-63
2024/01/18 11:25:11;;;;;;;0.90;0.90;;;;;;;;;;5037484;28;20577;-62
2024/01/18 11:27:40;;;;;;;1.03;1.03;;;;;;;;;;5052694;28;20206;-62
2024/01/18 11:30:13;;;;;;;0.90;0.90;;;;;;;;;;5046498;28;20280;-63
2024/01/18 11:32:41;;;;;;;0.83;0.83;;;;;;;;;;5037161;28;20203;-63
2024/01/18 11:35:09;;;;;;;1.30;1.20;;;;;;;;;;5037249;28;20361;-62
2024/01/18 11:37:38;;;;;;;1.20;1.10;;;;;;;;;;5035030;28;20234;-62
2024/01/18 11:40:12;;;;;;;5.07;3.07;;;;;;;;;;5038713;28;20419;-63
2024/01/18 11:42:44;;;;;;;1.53;1.43;;;;;;;;;;5039771;28;20207;-64
2024/01/18 11:45:12;;;;;;;3.13;2.93;;;;;;;;;;5038703;28;20323;-63
2024/01/18 11:47:44;;;;;;;1.27;1.20;;;;;;;;;;5032150;28;20202;-62
2024/01/18 11:50:12;;;;;;;1.50;1.50;;;;;;;;;;5042513;28;20214;-63
2024/01/18 11:55:17;;;;;;;1.00;1.00;;;;;;;;;;5036784;28;20194;-62
2024/01/18 11:57:46;;;;;;;0.97;0.97;;;;;;;;;;5035179;28;20380;-62
2024/01/18 12:00:14;;;;;;;1.00;1.00;;;;;;;;;;5036279;28;20708;-61
2024/01/18 12:02:43;;;;;;;1.13;1.13;;;;;;;;;;5036469;28;20264;-62
2024/01/18 12:05:11;;;;;;;0.90;0.90;;;;;;;;;;5039728;28;20203;-62
2024/01/18 12:07:43;;;;;;;1.00;1.00;;;;;;;;;;5037058;28;20203;-63
2024/01/18 12:10:16;;;;;;;1.00;1.00;;;;;;;;;;5033621;28;20225;-63
2024/01/18 12:12:44;;;;;;;0.97;0.97;;;;;;;;;;5037499;28;20564;-62
2024/01/18 12:15:20;;;;;;;1.30;1.30;;;;;;;;;;5038908;28;20206;-62
2024/01/18 12:17:57;;;;;;;1.10;1.10;;;;;;;;;;5033328;28;20932;-62
2024/01/18 12:20:24;;;;;;;1.23;1.13;;;;;;;;;;5036698;28;20199;-62
2024/01/18 12:22:52;;;;;;;1.03;1.03;;;;;;;;;;5037136;28;20206;-62
2024/01/18 12:25:20;;;;;;;1.70;1.60;;;;;;;;;;5037817;28;20221;-62
2024/01/18 12:27:48;;;;;;;2.93;1.50;;;;;;;;;;5031873;28;20380;-62
2024/01/18 12:30:19;;;;;;;1.10;1.10;;;;;;;;;;5035785;28;20703;-62
2024/01/18 12:33:10;;;;;;;1.17;1.17;;;;;;;;;;5037953;28;20276;-62
2024/01/18 12:35:38;;;;;;;1.50;1.50;;;;;;;;;;5035759;28;20206;-62
2024/01/18 12:38:08;;;;;;;1.40;1.40;;;;;;;;;;5036476;28;20226;-62
2024/01/18 12:40:41;;;;;;;1.73;1.73;;;;;;;;;;5036904;28;20226;-62
2024/01/18 12:43:18;;;;;;;1.10;1.10;;;;;;;;;;5034748;28;20203;-62
2024/01/18 12:45:53;;;;;;;1.13;1.13;;;;;;;;;;5036470;28;20655;-62
2024/01/18 12:48:31;;;;;;;1.63;1.20;;;;;;;;;;5042904;28;20213;-61
2024/01/18 12:50:59;;;;;;;2.27;1.97;;;;;;;;;;5042954;28;20274;-62
2024/01/18 12:53:33;;;;;;;1.70;1.70;;;;;;;;;;5034290;28;20214;-62
2024/01/18 12:56:12;;;;;;;1.40;1.40;;;;;;;;;;5040947;28;20210;-63
2024/01/18 12:58:42;;;;;;;1.40;1.40;;;;;;;;;;5055133;28;20645;-62
2024/01/18 13:01:24;;;;;;;1.20;1.20;;;;;;;;;;5044463;28;20229;-64
2024/01/18 13:03:52;;;;;;;1.30;1.30;;;;;;;;;;5037684;28;20731;-63
2024/01/18 13:06:19;;;;;;;1.33;1.33;;;;;;;;;;5031621;28;20209;-63
2024/01/18 13:08:47;;;;;;;1.30;1.30;;;;;;;;;;5047008;28;20205;-63
2024/01/18 13:11:19;;;;;;;1.20;1.20;;;;;;;;;;5058438;28;20229;-63
2024/01/18 13:13:52;;;;;;;1.30;1.30;;;;;;;;;;5042075;28;20300;-62
2024/01/18 13:16:23;;;;;;;1.50;1.50;;;;;;;;;;5037463;28;20199;-62
2024/01/18 13:18:52;;;;;;;1.30;1.30;;;;;;;;;;5037152;28;20225;-63
2024/01/18 13:21:22;;;;;;;1.50;1.20;;;;;;;;;;5035091;28;21921;-62
2024/01/18 13:23:50;;;;;;;1.20;1.20;;;;;;;;;;5035779;28;20605;-61
2024/01/18 13:26:17;;;;;;;2.40;2.30;;;;;;;;;;5035782;28;20203;-61
2024/01/18 13:28:44;;;;;;;1.30;1.30;;;;;;;;;;5034899;28;20203;-62
2024/01/18 13:31:13;;;;;;;1.30;1.30;;;;;;;;;;5041016;28;20222;-63
2024/01/18 13:33:45;;;;;;;1.30;1.30;;;;;;;;;;5038458;28;20198;-61
2024/01/18 13:36:20;;;;;;;1.30;1.30;;;;;;;;;;5037692;28;20213;-63
2024/01/18 13:38:48;;;;;;;1.30;1.30;;;;;;;;;;5036896;28;20249;-63
2024/01/18 13:41:19;;;;;;;1.33;1.33;;;;;;;;;;5033800;28;20225;-62
2024/01/18 13:43:54;;;;;;;1.30;1.30;;;;;;;;;;5038315;28;20733;-63
2024/01/18 13:46:28;;;;;;;1.60;1.60;;;;;;;;;;5037439;28;20649;-63
2024/01/18 13:48:57;;;;;;;1.40;1.40;;;;;;;;;;5034273;28;20215;-63
2024/01/18 13:51:27;;;;;;;1.93;1.83;;;;;;;;;;5035362;28;20230;-61
2024/01/18 13:53:58;;;;;;;1.90;1.80;;;;;;;;;;5041462;28;20213;-62
2024/01/18 13:56:34;;;;;;;1.90;1.80;;;;;;;;;;5029055;28;20762;-62
2024/01/18 13:59:01;;;;;;;1.97;1.87;;;;;;;;;;5034432;28;20229;-61
2024/01/18 14:01:34;;;;;;;1.90;1.80;;;;;;;;;;5039440;28;20219;-62
2024/01/18 14:04:08;;;;;;;1.80;1.70;;;;;;;;;;5035865;28;20294;-61
2024/01/18 14:06:39;;;;;;;2.00;1.90;;;;;;;;;;5058199;28;20265;-62
2024/01/18 14:09:13;;;;;;;1.63;1.63;;;;;;;;;;5048446;28;20256;-63
2024/01/18 14:11:42;;;;;;;1.90;1.80;;;;;;;;;;5043015;28;20333;-62
2024/01/18 14:14:14;;;;;;;1.70;1.60;;;;;;;;;;5035106;28;20672;-61
2024/01/18 14:16:43;;;;;;;2.10;2.00;;;;;;;;;;5037759;28;20231;-62
2024/01/18 14:19:17;;;;;;;1.90;1.80;;;;;;;;;;5043122;28;20209;-62
2024/01/18 14:21:47;;;;;;;1.90;1.80;;;;;;;;;;5041463;28;20309;-62
2024/01/18 14:24:19;;;;;;;2.20;2.10;;;;;;;;;;5039301;28;20701;-62
2024/01/18 14:26:51;;;;;;;2.20;2.10;;;;;;;;;;5035114;28;20210;-61
2024/01/18 14:29:18;;;;;;;2.17;2.07;;;;;;;;;;5039128;28;20274;-62
2024/01/18 14:31:46;;;;;;;2.47;2.37;;;;;;;;;;5038308;28;20232;-62
2024/01/18 14:34:13;;;;;;;2.30;2.10;;;;;;;;;;5038384;28;20206;-62
2024/01/18 14:36:41;;;;;;;2.10;2.00;;;;;;;;;;5040399;28;20214;-62
2024/01/18 14:39:16;;;;;;;2.33;2.23;;;;;;;;;;5034550;28;20228;-62
2024/01/18 14:41:49;;;;;;;2.67;2.57;;;;;;;;;;5035083;28;20301;-62
2024/01/18 14:44:17;;;;;;;2.87;2.67;;;;;;;;;;5037599;28;20212;-61
2024/01/18 14:46:51;;;;;;;3.20;3.00;;;;;;;;;;5041236;28;20660;-61
2024/01/18 14:49:27;;;;;;;3.10;2.90;;;;;;;;;;5037050;28;20205;-62
2024/01/18 14:51:55;;;;;;;3.57;3.30;;;;;;;;;;5038208;28;20237;-62
2024/01/18 14:54:28;;;;;;;3.27;3.07;;;;;;;;;;5041513;28;20242;-61
2024/01/18 14:57:02;;;;;;;4.00;3.70;;;;;;;;;;5034856;28;20215;-62
2024/01/18 14:59:32;;;;;;;3.53;3.33;;;;;;;;;;5033662;28;20314;-62
2024/01/18 15:01:59;;;;;;;3.93;3.63;;;;;;;;;;5034498;28;20316;-62
2024/01/18 15:04:27;;;;;;;3.87;3.57;;;;;;;;;;5034945;28;20687;-62
2024/01/18 15:06:54;;;;;;;4.00;3.70;;;;;;;;;;5029639;28;20202;-62
2024/01/18 15:09:22;;;;;;;3.90;3.60;;;;;;;;;;5038183;28;20206;-62